createdAt,value
2019-02-25T00:00:02.422Z,73.48
2019-02-25T00:05:02.987Z,73.51
2019-02-25T00:10:02.415Z,73.58
2019-02-25T00:15:02.767Z,73.56
2019-02-25T00:20:03.209Z,73.58
2019-02-25T00:25:02.616Z,73.64
2019-02-25T00:30:02.963Z,73.66
2019-02-25T00:35:03.307Z,73.7
2019-02-25T00:40:02.713Z,73.7
2019-02-25T00:45:03.069Z,73.73
2019-02-25T00:50:02.484Z,73.76
2019-02-25T00:55:02.827Z,73.78
2019-02-25T01:00:03.170Z,73.79
2019-02-25T01:05:02.575Z,73.81
2019-02-25T01:10:04.069Z,73.86
2019-02-25T01:15:02.461Z,73.96
2019-02-25T01:20:02.919Z,73.95
2019-02-25T01:25:03.339Z,73.98
2019-02-25T01:30:02.790Z,74.04
2019-02-25T01:35:03.232Z,74.09
2019-02-25T01:40:02.644Z,74.11
2019-02-25T01:45:03.108Z,74.13
2019-02-25T01:50:02.501Z,74.19
2019-02-25T01:55:02.952Z,74.18
2019-02-25T02:00:03.288Z,74.21
2019-02-25T02:05:02.706Z,74.25
2019-02-25T02:10:03.161Z,74.3
2019-02-25T02:15:02.531Z,74.35
2019-02-25T02:20:02.922Z,74.36
2019-02-25T02:25:03.361Z,74.39
2019-02-25T02:30:02.771Z,74.38
2019-02-25T02:35:03.227Z,74.41
2019-02-25T02:40:02.659Z,74.36
2019-02-25T02:45:03.051Z,74.36
2019-02-25T02:50:02.478Z,74.42
2019-02-25T02:55:02.914Z,74.5
2019-02-25T03:00:03.357Z,74.47
2019-02-25T03:05:02.769Z,74.45
2019-02-25T03:10:03.224Z,74.5
2019-02-25T03:15:02.628Z,74.49
2019-02-25T03:20:02.983Z,74.48
2019-02-25T03:25:02.324Z,74.47
2019-02-25T03:30:02.754Z,74.51
2019-02-25T03:35:03.184Z,74.53
2019-02-25T03:40:02.593Z,74.58
2019-02-25T03:45:02.955Z,74.65
2019-02-25T03:50:02.363Z,74.67
2019-02-25T03:55:01.904Z,74.68
2019-02-25T04:00:03.245Z,74.68
2019-02-25T04:05:02.659Z,74.7
2019-02-25T04:10:03.113Z,74.73
2019-02-25T04:15:02.524Z,74.73
2019-02-25T04:20:02.977Z,74.72
2019-02-25T04:25:02.327Z,74.72
2019-02-25T04:30:02.732Z,74.75
2019-02-25T04:35:03.078Z,74.78
2019-02-25T04:40:02.487Z,74.75
2019-02-25T04:45:02.837Z,74.77
2019-02-25T04:50:03.176Z,74.86
2019-02-25T04:55:02.599Z,74.85
2019-02-25T05:00:02.933Z,74.81
2019-02-25T05:05:03.277Z,74.86
2019-02-25T05:10:02.694Z,74.84
2019-02-25T05:15:03.041Z,74.91
2019-02-25T05:20:02.373Z,74.99
2019-02-25T05:25:02.798Z,74.96
2019-02-25T05:30:03.031Z,74.97
2019-02-25T05:35:02.458Z,75.04
2019-02-25T05:40:02.904Z,75.07
2019-02-25T05:45:03.256Z,75.09
2019-02-25T05:50:02.654Z,75.1
2019-02-25T05:55:03.026Z,75.16
2019-02-25T06:00:02.863Z,75.14
2019-02-25T06:05:03.315Z,75.22
2019-02-25T06:10:02.828Z,75.2
2019-02-25T06:15:03.271Z,75.17
2019-02-25T06:20:02.650Z,75.15
2019-02-25T06:25:03.009Z,75.17
2019-02-25T06:30:02.431Z,75.19
2019-02-25T06:35:02.856Z,75.22
2019-02-25T06:40:03.305Z,75.28
2019-02-25T06:45:02.753Z,75.28
2019-02-25T06:50:03.179Z,75.27
2019-02-25T06:55:02.978Z,75.26
2019-02-25T07:00:02.316Z,75.27
2019-02-25T07:05:02.650Z,75.35
2019-02-25T07:10:03.100Z,75.35
2019-02-25T07:15:02.512Z,75.33
2019-02-25T07:20:02.993Z,75.35
2019-02-25T07:25:02.371Z,75.43
2019-02-25T07:30:02.714Z,75.46
2019-02-25T07:35:03.140Z,75.47
2019-02-25T07:40:02.606Z,75.53
2019-02-25T07:45:03.024Z,75.51
2019-02-25T07:50:02.437Z,75.58
2019-02-25T07:55:02.889Z,75.63
2019-02-25T08:00:03.568Z,75.67
2019-02-25T08:05:02.945Z,75.68
2019-02-25T08:10:02.405Z,75.72
2019-02-25T08:15:02.807Z,75.8
2019-02-25T08:20:02.456Z,75.84
2019-02-25T08:25:02.803Z,75.89
2019-02-25T08:30:03.227Z,75.97
2019-02-25T08:35:02.637Z,76.04
2019-02-25T08:40:03.129Z,76.09
2019-02-25T08:45:02.495Z,76.13
2019-02-25T08:50:02.944Z,76.17
2019-02-25T08:55:03.389Z,76.2
2019-02-25T09:00:02.797Z,76.18
2019-02-25T09:05:03.152Z,76.23
2019-02-25T09:10:02.568Z,76.22
2019-02-25T09:15:02.920Z,76.31
2019-02-25T09:20:03.359Z,76.35
2019-02-25T09:25:02.765Z,76.45
2019-02-25T09:30:03.117Z,76.45
2019-02-25T09:35:02.429Z,76.39
2019-02-25T09:40:02.876Z,76.33
2019-02-25T09:45:03.320Z,76.26
2019-02-25T09:50:02.729Z,76.18
2019-02-25T09:55:03.092Z,76.07
2019-02-25T10:00:02.487Z,76.0
2019-02-25T10:05:02.839Z,75.85
2019-02-25T10:10:03.288Z,75.76
2019-02-25T10:15:02.623Z,75.6
2019-02-25T10:20:03.050Z,75.53
2019-02-25T10:25:01.674Z,75.43
2019-02-25T10:30:04.117Z,75.38
2019-02-25T10:35:02.629Z,75.31
2019-02-25T10:40:03.072Z,75.25
2019-02-25T10:45:03.156Z,75.18
2019-02-25T10:50:03.214Z,75.14
2019-02-25T10:55:03.285Z,75.13
2019-02-25T11:00:04.862Z,75.13
2019-02-25T11:05:02.938Z,75.12
2019-02-25T11:10:02.353Z,75.05
2019-02-25T11:15:02.716Z,75.1
2019-02-25T11:20:03.796Z,75.04
2019-02-25T11:25:03.107Z,75.04
2019-02-25T11:30:02.492Z,75.04
2019-02-25T11:35:04.067Z,75.06
2019-02-25T11:40:04.382Z,75.06
2019-02-25T11:45:04.489Z,75.13
2019-02-25T11:50:03.070Z,75.21
2019-02-25T11:55:02.553Z,75.41
2019-02-25T12:00:02.930Z,75.52
2019-02-25T12:05:03.378Z,75.68
2019-02-25T12:10:02.892Z,75.77
2019-02-25T12:15:03.344Z,75.96
2019-02-25T12:20:02.722Z,76.08
2019-02-25T12:25:03.110Z,76.22
2019-02-25T12:30:02.482Z,76.35
2019-02-25T12:35:02.953Z,76.49
2019-02-25T12:40:02.450Z,76.62
2019-02-25T12:45:02.791Z,76.73
2019-02-25T12:50:03.136Z,76.79
2019-02-25T12:55:02.546Z,76.03
2019-02-25T13:00:02.993Z,74.53
2019-02-25T13:05:02.413Z,72.29
2019-02-25T13:10:02.854Z,71.72
2019-02-25T13:15:12.879Z,70.8
2019-02-25T13:20:02.845Z,68.97
2019-02-25T13:25:03.650Z,68.23
2019-02-25T13:30:01.957Z,68.29
2019-02-25T13:35:02.055Z,68.95
2019-02-25T13:40:02.541Z,68.1
2019-02-25T13:45:02.981Z,68.56
2019-02-25T13:50:02.716Z,67.67
2019-02-25T13:55:03.148Z,66.77
2019-02-25T14:00:02.589Z,67.18
2019-02-25T14:05:03.005Z,66.93
2019-02-25T14:10:02.438Z,66.58
2019-02-25T14:15:02.878Z,66.71
2019-02-25T14:20:03.312Z,64.95
2019-02-25T14:25:03.620Z,65.34
2019-02-25T14:30:03.179Z,63.28
2019-02-25T14:35:02.795Z,65.32
2019-02-25T14:40:04.076Z,65.89
2019-02-25T14:45:04.581Z,65.88
2019-02-25T14:50:02.913Z,65.9
2019-02-25T14:55:04.904Z,65.61
2019-02-25T15:00:02.991Z,66.16
2019-02-25T15:05:02.439Z,64.22
2019-02-25T15:10:04.252Z,65.02
2019-02-25T15:15:03.106Z,64.54
2019-02-25T15:20:03.108Z,65.36
2019-02-25T15:25:02.553Z,63.98
2019-02-25T15:30:02.982Z,64.2
2019-02-25T15:35:02.379Z,64.48
2019-02-25T15:40:02.978Z,64.35
2019-02-25T15:45:02.411Z,64.24
2019-02-25T15:50:04.397Z,63.83
2019-02-25T15:55:02.633Z,63.59
2019-02-25T16:00:03.221Z,62.6
2019-02-25T16:05:04.192Z,62.77
2019-02-25T16:10:04.319Z,62.85
2019-02-25T16:15:02.849Z,62.48
2019-02-25T16:20:04.434Z,62.4
2019-02-25T16:25:04.985Z,62.75
2019-02-25T16:30:03.683Z,63.3
2019-02-25T16:35:04.615Z,63.42
2019-02-25T16:40:03.848Z,63.71
2019-02-25T16:45:04.151Z,63.98
2019-02-25T16:50:03.364Z,64.19
2019-02-25T16:55:01.920Z,65.17
2019-02-25T17:00:05.136Z,65.78
2019-02-25T17:05:02.588Z,66.48
2019-02-25T17:10:03.324Z,66.7
2019-02-25T17:15:02.434Z,66.65
2019-02-25T17:20:02.893Z,66.92
2019-02-25T17:25:07.507Z,67.34
2019-02-25T17:30:02.778Z,67.84
2019-02-25T17:35:05.148Z,68.28
2019-02-25T17:40:05.716Z,68.51
2019-02-25T17:45:04.616Z,68.85
2019-02-25T17:50:04.477Z,69.08
2019-02-25T17:55:04.595Z,69.32
2019-02-25T18:00:02.671Z,69.47
2019-02-25T18:05:03.293Z,69.67
2019-02-25T18:10:03.532Z,69.84
2019-02-25T18:15:03.509Z,70.04
2019-02-25T18:20:02.562Z,70.17
2019-02-25T18:25:04.976Z,70.32
2019-02-25T18:30:02.434Z,70.44
2019-02-25T18:35:03.106Z,70.6
2019-02-25T18:40:02.506Z,70.72
2019-02-25T18:45:02.953Z,70.84
2019-02-25T18:50:02.362Z,70.94
2019-02-25T18:55:04.380Z,71.08
2019-02-25T19:00:04.514Z,71.16
2019-02-25T19:05:04.496Z,71.3
2019-02-25T19:10:02.566Z,71.38
2019-02-25T19:15:04.481Z,71.52
2019-02-25T19:20:02.773Z,71.6
2019-02-25T19:25:05.488Z,71.71
2019-02-25T19:30:03.080Z,71.79
2019-02-25T19:35:04.742Z,71.88
2019-02-25T19:40:05.330Z,71.94
2019-02-25T19:45:05.257Z,71.98
2019-02-25T19:50:04.583Z,72.08
2019-02-25T19:55:05.659Z,72.12
2019-02-25T20:00:02.966Z,72.17
2019-02-25T20:05:04.713Z,72.26
2019-02-25T20:10:02.793Z,72.3
2019-02-25T20:15:03.239Z,72.39
2019-02-25T20:20:04.738Z,72.43
2019-02-25T20:25:02.790Z,72.49
2019-02-25T20:30:04.941Z,72.57
2019-02-25T20:35:02.873Z,72.63
2019-02-25T20:40:03.321Z,72.7
2019-02-25T20:45:04.537Z,72.77
2019-02-25T20:50:03.756Z,72.81
2019-02-25T20:55:03.809Z,72.86
2019-02-25T21:00:04.202Z,72.91
2019-02-25T21:05:02.668Z,72.99
2019-02-25T21:10:04.034Z,73.02
2019-02-25T21:15:02.906Z,73.05
2019-02-25T21:20:04.827Z,73.13
2019-02-25T21:25:04.739Z,73.17
2019-02-25T21:30:04.041Z,73.22
2019-02-25T21:35:04.420Z,73.26
2019-02-25T21:40:04.709Z,73.35
2019-02-25T21:45:02.563Z,73.41
2019-02-25T21:50:04.143Z,73.42
2019-02-25T21:55:04.872Z,73.5
2019-02-25T22:00:05.037Z,73.5
2019-02-25T22:05:02.546Z,73.59
2019-02-25T22:10:02.946Z,73.61
2019-02-25T22:15:03.334Z,73.66
2019-02-25T22:20:04.796Z,73.68
2019-02-25T22:25:06.058Z,73.78
2019-02-25T22:30:04.702Z,73.77
2019-02-25T22:35:04.632Z,73.78
2019-02-25T22:40:01.523Z,73.81
2019-02-25T22:45:02.044Z,73.85
2019-02-25T22:50:04.143Z,73.85
2019-02-25T22:55:05.933Z,73.9
2019-02-25T23:00:05.715Z,73.9
2019-02-25T23:05:02.678Z,73.95
2019-02-25T23:10:03.088Z,73.99
2019-02-25T23:15:03.844Z,73.99
2019-02-25T23:20:03.485Z,74.01
2019-02-25T23:25:02.569Z,74.08
2019-02-25T23:30:02.909Z,74.06
2019-02-25T23:35:03.254Z,74.08
2019-02-25T23:40:04.666Z,74.13
2019-02-25T23:45:02.503Z,74.18
2019-02-25T23:50:04.042Z,74.17
2019-02-25T23:55:02.465Z,74.18
